sensor_id;sensor_type;location;lat;lon;timestamp;temperature;humidity
51853;DHT22;37894;53.172;6.598;2023-02-01T00:00:25;6.00;99.90
51853;DHT22;37894;53.172;6.598;2023-02-01T00:05:16;5.70;99.90
51853;DHT22;37894;53.172;6.598;2023-02-01T00:07:42;6.10;99.90
51853;DHT22;37894;53.172;6.598;2023-02-01T00:10:10;5.90;99.90
51853;DHT22;37894;53.172;6.598;2023-02-01T00:15:02;6.30;99.90
51853;DHT22;37894;53.172;6.598;2023-02-01T00:17:28;5.80;99.90
51853;DHT22;37894;53.172;6.598;2023-02-01T00:19:53;6.00;99.90
51853;DHT22;37894;53.172;6.598;2023-02-01T00:22:19;5.80;99.90
51853;DHT22;37894;53.172;6.598;2023-02-01T00:24:45;5.80;99.90
51853;DHT22;37894;53.172;6.598;2023-02-01T00:29:38;6.10;99.90
51853;DHT22;37894;53.172;6.598;2023-02-01T00:32:04;6.20;99.90
51853;DHT22;37894;53.172;6.598;2023-02-01T00:34:29;6.10;99.90
51853;DHT22;37894;53.172;6.598;2023-02-01T00:36:55;6.20;99.90
51853;DHT22;37894;53.172;6.598;2023-02-01T00:39:21;5.70;99.90
51853;DHT22;37894;53.172;6.598;2023-02-01T00:41:46;5.90;99.90
51853;DHT22;37894;53.172;6.598;2023-02-01T00:44:12;5.50;99.90
51853;DHT22;37894;53.172;6.598;2023-02-01T00:46:38;5.80;99.90
51853;DHT22;37894;53.172;6.598;2023-02-01T00:49:03;6.10;99.90
51853;DHT22;37894;53.172;6.598;2023-02-01T00:51:30;6.30;99.90
51853;DHT22;37894;53.172;6.598;2023-02-01T00:53:56;6.10;99.90
51853;DHT22;37894;53.172;6.598;2023-02-01T00:56:22;6.20;99.90
51853;DHT22;37894;53.172;6.598;2023-02-01T00:58:48;6.20;99.90
51853;DHT22;37894;53.172;6.598;2023-02-01T01:01:17;6.10;99.90
51853;DHT22;37894;53.172;6.598;2023-02-01T01:03:48;6.20;99.90
51853;DHT22;37894;53.172;6.598;2023-02-01T01:06:18;5.70;99.90
51853;DHT22;37894;53.172;6.598;2023-02-01T01:08:44;6.30;99.90
51853;DHT22;37894;53.172;6.598;2023-02-01T01:11:16;6.10;99.90
51853;DHT22;37894;53.172;6.598;2023-02-01T01:13:43;6.10;99.90
51853;DHT22;37894;53.172;6.598;2023-02-01T01:16:10;6.20;99.90
51853;DHT22;37894;53.172;6.598;2023-02-01T01:18:36;6.10;99.90
51853;DHT22;37894;53.172;6.598;2023-02-01T01:21:05;6.00;99.90
51853;DHT22;37894;53.172;6.598;2023-02-01T01:23:31;5.60;99.90
51853;DHT22;37894;53.172;6.598;2023-02-01T01:28:23;6.50;99.90
51853;DHT22;37894;53.172;6.598;2023-02-01T01:30:49;6.30;99.90
51853;DHT22;37894;53.172;6.598;2023-02-01T01:33:15;6.00;99.90
51853;DHT22;37894;53.172;6.598;2023-02-01T01:35:40;5.70;99.90
51853;DHT22;37894;53.172;6.598;2023-02-01T01:40:32;6.00;99.90
51853;DHT22;37894;53.172;6.598;2023-02-01T01:42:58;5.30;99.90
51853;DHT22;37894;53.172;6.598;2023-02-01T01:45:29;5.80;99.90
51853;DHT22;37894;53.172;6.598;2023-02-01T01:48:13;6.20;99.90
51853;DHT22;37894;53.172;6.598;2023-02-01T01:50:44;6.20;99.90
51853;DHT22;37894;53.172;6.598;2023-02-01T01:53:17;6.30;99.90
51853;DHT22;37894;53.172;6.598;2023-02-01T01:55:45;5.90;99.90
51853;DHT22;37894;53.172;6.598;2023-02-01T01:58:20;6.30;99.90
51853;DHT22;37894;53.172;6.598;2023-02-01T02:00:47;6.10;99.90
51853;DHT22;37894;53.172;6.598;2023-02-01T02:03:20;6.00;99.90
51853;DHT22;37894;53.172;6.598;2023-02-01T02:05:48;6.00;99.90
51853;DHT22;37894;53.172;6.598;2023-02-01T02:08:16;5.80;99.90
51853;DHT22;37894;53.172;6.598;2023-02-01T02:10:42;6.00;99.90
51853;DHT22;37894;53.172;6.598;2023-02-01T02:13:29;5.90;99.90
51853;DHT22;37894;53.172;6.598;2023-02-01T02:16:24;5.90;99.90
51853;DHT22;37894;53.172;6.598;2023-02-01T02:45:09;5.60;99.90
51853;DHT22;37894;53.172;6.598;2023-02-01T02:48:08;5.70;99.90
51853;DHT22;37894;53.172;6.598;2023-02-01T02:50:44;5.20;99.90
51853;DHT22;37894;53.172;6.598;2023-02-01T02:53:32;5.80;99.90
51853;DHT22;37894;53.172;6.598;2023-02-01T02:56:20;5.50;99.90
51853;DHT22;37894;53.172;6.598;2023-02-01T02:59:07;5.60;99.90
51853;DHT22;37894;53.172;6.598;2023-02-01T03:01:53;5.30;99.90
51853;DHT22;37894;53.172;6.598;2023-02-01T03:04:37;5.00;99.90
51853;DHT22;37894;53.172;6.598;2023-02-01T03:10:05;6.60;99.90
51853;DHT22;37894;53.172;6.598;2023-02-01T03:12:38;5.80;99.90
51853;DHT22;37894;53.172;6.598;2023-02-01T03:18:19;5.70;99.90
51853;DHT22;37894;53.172;6.598;2023-02-01T03:20:49;5.90;99.90
51853;DHT22;37894;53.172;6.598;2023-02-01T03:23:19;5.70;99.90
51853;DHT22;37894;53.172;6.598;2023-02-01T03:25:47;6.10;99.90
51853;DHT22;37894;53.172;6.598;2023-02-01T03:28:15;5.60;99.90
51853;DHT22;37894;53.172;6.598;2023-02-01T03:30:44;6.20;99.90
51853;DHT22;37894;53.172;6.598;2023-02-01T03:33:17;6.00;99.90
51853;DHT22;37894;53.172;6.598;2023-02-01T03:41:28;6.00;99.90
51853;DHT22;37894;53.172;6.598;2023-02-01T03:46:30;6.10;99.90
51853;DHT22;37894;53.172;6.598;2023-02-01T03:49:01;5.60;99.90
51853;DHT22;37894;53.172;6.598;2023-02-01T03:51:28;5.70;99.90
51853;DHT22;37894;53.172;6.598;2023-02-01T03:53:55;6.00;99.90
51853;DHT22;37894;53.172;6.598;2023-02-01T03:56:22;6.10;99.90
51853;DHT22;37894;53.172;6.598;2023-02-01T03:58:51;6.10;99.90
51853;DHT22;37894;53.172;6.598;2023-02-01T04:01:30;5.80;99.90
51853;DHT22;37894;53.172;6.598;2023-02-01T04:03:56;6.10;99.90
51853;DHT22;37894;53.172;6.598;2023-02-01T04:06:23;6.00;99.90
51853;DHT22;37894;53.172;6.598;2023-02-01T04:08:50;6.20;99.90
51853;DHT22;37894;53.172;6.598;2023-02-01T04:13:43;6.30;99.90
51853;DHT22;37894;53.172;6.598;2023-02-01T04:16:08;5.80;99.90
51853;DHT22;37894;53.172;6.598;2023-02-01T04:21:01;6.50;99.90
51853;DHT22;37894;53.172;6.598;2023-02-01T04:23:28;6.10;99.90
51853;DHT22;37894;53.172;6.598;2023-02-01T04:25:54;6.30;99.90
51853;DHT22;37894;53.172;6.598;2023-02-01T04:28:23;5.60;99.90
51853;DHT22;37894;53.172;6.598;2023-02-01T04:30:49;6.10;99.90
51853;DHT22;37894;53.172;6.598;2023-02-01T04:33:15;6.20;99.90
51853;DHT22;37894;53.172;6.598;2023-02-01T04:35:40;5.60;99.90
51853;DHT22;37894;53.172;6.598;2023-02-01T04:38:06;6.20;99.90
51853;DHT22;37894;53.172;6.598;2023-02-01T04:40:32;5.90;99.90
51853;DHT22;37894;53.172;6.598;2023-02-01T04:43:00;5.40;99.90
51853;DHT22;37894;53.172;6.598;2023-02-01T04:47:52;5.90;99.90
51853;DHT22;37894;53.172;6.598;2023-02-01T04:52:43;5.90;99.90
51853;DHT22;37894;53.172;6.598;2023-02-01T04:55:10;6.20;99.90
51853;DHT22;37894;53.172;6.598;2023-02-01T04:57:36;6.10;99.90
51853;DHT22;37894;53.172;6.598;2023-02-01T05:00:05;6.60;99.90
51853;DHT22;37894;53.172;6.598;2023-02-01T05:02:31;6.10;99.90
51853;DHT22;37894;53.172;6.598;2023-02-01T05:04:57;6.50;99.90
51853;DHT22;37894;53.172;6.598;2023-02-01T05:07:23;5.40;99.90
51853;DHT22;37894;53.172;6.598;2023-02-01T05:09:49;5.90;99.90
51853;DHT22;37894;53.172;6.598;2023-02-01T05:12:14;6.40;99.90
51853;DHT22;37894;53.172;6.598;2023-02-01T05:14:59;5.00;99.90
51853;DHT22;37894;53.172;6.598;2023-02-01T05:17:27;6.00;99.90
51853;DHT22;37894;53.172;6.598;2023-02-01T05:19:52;6.00;99.90
51853;DHT22;37894;53.172;6.598;2023-02-01T05:22:18;5.90;99.90
51853;DHT22;37894;53.172;6.598;2023-02-01T05:24:44;6.20;99.90
51853;DHT22;37894;53.172;6.598;2023-02-01T05:29:36;6.00;99.90
51853;DHT22;37894;53.172;6.598;2023-02-01T05:34:28;5.50;99.90
51853;DHT22;37894;53.172;6.598;2023-02-01T05:36:53;6.20;99.90
51853;DHT22;37894;53.172;6.598;2023-02-01T05:39:19;5.60;99.90
51853;DHT22;37894;53.172;6.598;2023-02-01T05:41:45;6.10;99.90
51853;DHT22;37894;53.172;6.598;2023-02-01T05:46:37;7.20;99.90
51853;DHT22;37894;53.172;6.598;2023-02-01T05:49:04;6.10;99.90
51853;DHT22;37894;53.172;6.598;2023-02-01T05:51:30;6.30;99.90
51853;DHT22;37894;53.172;6.598;2023-02-01T05:53:55;6.20;99.90
51853;DHT22;37894;53.172;6.598;2023-02-01T05:56:21;5.40;99.90
51853;DHT22;37894;53.172;6.598;2023-02-01T05:58:47;6.10;99.90
51853;DHT22;37894;53.172;6.598;2023-02-01T06:01:13;6.20;99.90
51853;DHT22;37894;53.172;6.598;2023-02-01T06:03:38;6.30;99.90
51853;DHT22;37894;53.172;6.598;2023-02-01T06:06:04;5.30;99.90
51853;DHT22;37894;53.172;6.598;2023-02-01T06:11:01;6.20;99.90
51853;DHT22;37894;53.172;6.598;2023-02-01T06:13:26;5.60;99.90
51853;DHT22;37894;53.172;6.598;2023-02-01T06:15:52;6.00;99.90
51853;DHT22;37894;53.172;6.598;2023-02-01T06:18:18;6.20;99.90
51853;DHT22;37894;53.172;6.598;2023-02-01T06:20:44;7.20;99.90
51853;DHT22;37894;53.172;6.598;2023-02-01T06:23:10;6.10;99.90
51853;DHT22;37894;53.172;6.598;2023-02-01T06:25:35;6.40;99.90
51853;DHT22;37894;53.172;6.598;2023-02-01T06:28:03;6.00;99.90
51853;DHT22;37894;53.172;6.598;2023-02-01T06:30:31;6.10;99.90
51853;DHT22;37894;53.172;6.598;2023-02-01T06:32:57;6.20;99.90
51853;DHT22;37894;53.172;6.598;2023-02-01T06:35:22;5.90;99.90
51853;DHT22;37894;53.172;6.598;2023-02-01T06:40:14;6.00;99.90
51853;DHT22;37894;53.172;6.598;2023-02-01T06:45:07;6.40;99.90
51853;DHT22;37894;53.172;6.598;2023-02-01T06:47:33;6.30;99.90
51853;DHT22;37894;53.172;6.598;2023-02-01T06:54:53;5.90;99.90
51853;DHT22;37894;53.172;6.598;2023-02-01T06:57:19;6.00;99.90
51853;DHT22;37894;53.172;6.598;2023-02-01T06:59:45;6.20;99.90
51853;DHT22;37894;53.172;6.598;2023-02-01T07:02:11;5.30;99.90
51853;DHT22;37894;53.172;6.598;2023-02-01T07:04:37;6.20;99.90
51853;DHT22;37894;53.172;6.598;2023-02-01T07:09:29;5.90;99.90
51853;DHT22;37894;53.172;6.598;2023-02-01T07:19:12;5.90;99.90
51853;DHT22;37894;53.172;6.598;2023-02-01T07:24:08;6.30;99.90
51853;DHT22;37894;53.172;6.598;2023-02-01T07:26:33;6.30;99.90
51853;DHT22;37894;53.172;6.598;2023-02-01T07:31:25;6.30;99.90
51853;DHT22;37894;53.172;6.598;2023-02-01T07:33:54;6.50;99.90
51853;DHT22;37894;53.172;6.598;2023-02-01T07:36:22;6.30;99.90
51853;DHT22;37894;53.172;6.598;2023-02-01T07:41:14;5.90;99.90
51853;DHT22;37894;53.172;6.598;2023-02-01T07:43:41;6.80;99.90
51853;DHT22;37894;53.172;6.598;2023-02-01T07:46:07;6.40;99.90
51853;DHT22;37894;53.172;6.598;2023-02-01T07:48:33;6.40;99.90
51853;DHT22;37894;53.172;6.598;2023-02-01T07:51:13;6.40;99.90
51853;DHT22;37894;53.172;6.598;2023-02-01T07:53:40;6.10;99.90
51853;DHT22;37894;53.172;6.598;2023-02-01T07:56:15;6.00;99.90
51853;DHT22;37894;53.172;6.598;2023-02-01T07:58:41;6.90;99.90
51853;DHT22;37894;53.172;6.598;2023-02-01T08:01:14;7.10;99.90
51853;DHT22;37894;53.172;6.598;2023-02-01T08:03:47;5.90;99.90
51853;DHT22;37894;53.172;6.598;2023-02-01T08:06:13;6.50;99.90
51853;DHT22;37894;53.172;6.598;2023-02-01T08:08:39;6.40;99.90
51853;DHT22;37894;53.172;6.598;2023-02-01T08:11:05;6.60;99.90
51853;DHT22;37894;53.172;6.598;2023-02-01T08:13:34;6.40;99.90
51853;DHT22;37894;53.172;6.598;2023-02-01T08:16:02;6.30;99.90
51853;DHT22;37894;53.172;6.598;2023-02-01T08:18:29;6.50;99.90
51853;DHT22;37894;53.172;6.598;2023-02-01T08:20:55;6.40;99.90
51853;DHT22;37894;53.172;6.598;2023-02-01T08:23:22;6.30;99.90
51853;DHT22;37894;53.172;6.598;2023-02-01T08:25:48;6.30;99.90
51853;DHT22;37894;53.172;6.598;2023-02-01T08:28:18;6.40;99.90
51853;DHT22;37894;53.172;6.598;2023-02-01T08:33:10;6.50;99.90
51853;DHT22;37894;53.172;6.598;2023-02-01T08:35:38;6.00;99.90
51853;DHT22;37894;53.172;6.598;2023-02-01T08:42:56;6.50;99.90
51853;DHT22;37894;53.172;6.598;2023-02-01T08:45:24;6.50;99.90
51853;DHT22;37894;53.172;6.598;2023-02-01T08:47:51;5.60;99.90
51853;DHT22;37894;53.172;6.598;2023-02-01T08:50:18;7.60;99.90
51853;DHT22;37894;53.172;6.598;2023-02-01T08:52:44;6.30;99.90
51853;DHT22;37894;53.172;6.598;2023-02-01T08:55:11;6.70;99.90
51853;DHT22;37894;53.172;6.598;2023-02-01T09:00:05;6.50;99.90
51853;DHT22;37894;53.172;6.598;2023-02-01T09:04:57;6.60;99.90
51853;DHT22;37894;53.172;6.598;2023-02-01T09:09:49;6.60;99.90
51853;DHT22;37894;53.172;6.598;2023-02-01T09:12:15;7.00;99.90
51853;DHT22;37894;53.172;6.598;2023-02-01T09:19:33;6.50;99.90
51853;DHT22;37894;53.172;6.598;2023-02-01T09:21:58;5.60;99.90
51853;DHT22;37894;53.172;6.598;2023-02-01T09:24:24;7.20;99.90
51853;DHT22;37894;53.172;6.598;2023-02-01T09:26:50;5.70;99.90
51853;DHT22;37894;53.172;6.598;2023-02-01T09:29:17;6.40;99.90
51853;DHT22;37894;53.172;6.598;2023-02-01T09:31:42;6.70;99.90
51853;DHT22;37894;53.172;6.598;2023-02-01T09:36:34;6.70;99.90
51853;DHT22;37894;53.172;6.598;2023-02-01T09:39:01;5.70;99.90
51853;DHT22;37894;53.172;6.598;2023-02-01T09:46:55;7.50;99.90
51853;DHT22;37894;53.172;6.598;2023-02-01T09:52:24;6.40;99.90
51853;DHT22;37894;53.172;6.598;2023-02-01T09:55:06;6.80;99.90
51853;DHT22;37894;53.172;6.598;2023-02-01T09:57:57;5.70;99.90
51853;DHT22;37894;53.172;6.598;2023-02-01T10:00:27;6.40;99.90
51853;DHT22;37894;53.172;6.598;2023-02-01T10:02:55;6.40;99.90
51853;DHT22;37894;53.172;6.598;2023-02-01T10:08:13;6.60;99.90
51853;DHT22;37894;53.172;6.598;2023-02-01T10:10:48;6.30;99.90
51853;DHT22;37894;53.172;6.598;2023-02-01T10:16:04;6.20;99.90
51853;DHT22;37894;53.172;6.598;2023-02-01T10:21:58;6.20;99.90
51853;DHT22;37894;53.172;6.598;2023-02-01T10:24:45;6.50;99.90
51853;DHT22;37894;53.172;6.598;2023-02-01T10:27:20;6.10;99.90
51853;DHT22;37894;53.172;6.598;2023-02-01T10:29:59;6.70;99.90
51853;DHT22;37894;53.172;6.598;2023-02-01T10:32:31;6.00;99.90
51853;DHT22;37894;53.172;6.598;2023-02-01T10:35:00;6.10;99.90
51853;DHT22;37894;53.172;6.598;2023-02-01T10:37:33;5.30;99.90
51853;DHT22;37894;53.172;6.598;2023-02-01T10:40:09;6.20;99.90
51853;DHT22;37894;53.172;6.598;2023-02-01T10:42:38;6.40;99.90
51853;DHT22;37894;53.172;6.598;2023-02-01T10:45:05;7.40;99.90
51853;DHT22;37894;53.172;6.598;2023-02-01T10:47:31;5.80;99.90
51853;DHT22;37894;53.172;6.598;2023-02-01T10:53:15;6.50;99.90
51853;DHT22;37894;53.172;6.598;2023-02-01T10:58:46;6.30;99.90
51853;DHT22;37894;53.172;6.598;2023-02-01T11:01:19;6.70;99.90
51853;DHT22;37894;53.172;6.598;2023-02-01T11:03:57;6.60;99.90
51853;DHT22;37894;53.172;6.598;2023-02-01T11:06:31;6.90;99.90
51853;DHT22;37894;53.172;6.598;2023-02-01T11:09:20;6.60;99.90
51853;DHT22;37894;53.172;6.598;2023-02-01T11:14:25;6.60;99.90
51853;DHT22;37894;53.172;6.598;2023-02-01T11:16:59;6.60;99.90
51853;DHT22;37894;53.172;6.598;2023-02-01T11:19:26;6.30;99.90
51853;DHT22;37894;53.172;6.598;2023-02-01T11:21:54;6.30;99.90
51853;DHT22;37894;53.172;6.598;2023-02-01T11:24:27;5.50;99.90
51853;DHT22;37894;53.172;6.598;2023-02-01T11:26:59;6.50;99.90
51853;DHT22;37894;53.172;6.598;2023-02-01T11:29:31;6.00;99.90
51853;DHT22;37894;53.172;6.598;2023-02-01T11:32:00;5.40;99.90
51853;DHT22;37894;53.172;6.598;2023-02-01T11:34:34;5.80;99.90
51853;DHT22;37894;53.172;6.598;2023-02-01T11:37:02;5.50;99.90
51853;DHT22;37894;53.172;6.598;2023-02-01T11:39:33;6.00;99.90
51853;DHT22;37894;53.172;6.598;2023-02-01T11:42:13;6.30;99.90
51853;DHT22;37894;53.172;6.598;2023-02-01T11:44:41;6.10;99.90
51853;DHT22;37894;53.172;6.598;2023-02-01T11:49:56;7.10;99.90
51853;DHT22;37894;53.172;6.598;2023-02-01T11:57:58;7.40;99.90
51853;DHT22;37894;53.172;6.598;2023-02-01T12:06:36;7.90;99.90
51853;DHT22;37894;53.172;6.598;2023-02-01T12:09:11;6.80;99.90
51853;DHT22;37894;53.172;6.598;2023-02-01T12:17:19;6.90;99.90
51853;DHT22;37894;53.172;6.598;2023-02-01T12:22:55;7.20;99.90
51853;DHT22;37894;53.172;6.598;2023-02-01T12:38:39;7.60;99.90
51853;DHT22;37894;53.172;6.598;2023-02-01T12:44:01;7.20;99.90
51853;DHT22;37894;53.172;6.598;2023-02-01T12:46:54;7.70;99.90
51853;DHT22;37894;53.172;6.598;2023-02-01T12:49:35;8.30;99.90
51853;DHT22;37894;53.172;6.598;2023-02-01T12:52:06;6.90;99.90
51853;DHT22;37894;53.172;6.598;2023-02-01T12:54:58;7.20;99.90
51853;DHT22;37894;53.172;6.598;2023-02-01T12:57:31;8.50;99.90
51853;DHT22;37894;53.172;6.598;2023-02-01T13:00:22;7.60;99.90
51853;DHT22;37894;53.172;6.598;2023-02-01T13:08:25;7.70;99.90
51853;DHT22;37894;53.172;6.598;2023-02-01T13:11:03;7.20;99.90
51853;DHT22;37894;53.172;6.598;2023-02-01T13:13:47;7.80;99.90
51853;DHT22;37894;53.172;6.598;2023-02-01T13:16:30;7.70;99.90
51853;DHT22;37894;53.172;6.598;2023-02-01T13:19:21;7.50;99.90
51853;DHT22;37894;53.172;6.598;2023-02-01T13:21:51;7.70;99.90
51853;DHT22;37894;53.172;6.598;2023-02-01T13:24:38;7.40;99.90
51853;DHT22;37894;53.172;6.598;2023-02-01T13:27:05;7.70;99.90
51853;DHT22;37894;53.172;6.598;2023-02-01T13:29:33;7.60;99.90
51853;DHT22;37894;53.172;6.598;2023-02-01T13:32:15;7.70;99.90
51853;DHT22;37894;53.172;6.598;2023-02-01T13:34:57;7.60;99.90
51853;DHT22;37894;53.172;6.598;2023-02-01T13:45:50;7.70;99.90
51853;DHT22;37894;53.172;6.598;2023-02-01T13:48:41;7.80;99.90
51853;DHT22;37894;53.172;6.598;2023-02-01T13:51:12;7.80;99.90
51853;DHT22;37894;53.172;6.598;2023-02-01T13:53:45;7.70;99.90
51853;DHT22;37894;53.172;6.598;2023-02-01T13:58:42;7.90;99.90
51853;DHT22;37894;53.172;6.598;2023-02-01T14:03:59;7.40;99.90
51853;DHT22;37894;53.172;6.598;2023-02-01T14:19:38;7.80;99.90
51853;DHT22;37894;53.172;6.598;2023-02-01T14:22:32;7.70;99.90
51853;DHT22;37894;53.172;6.598;2023-02-01T14:24:58;8.60;99.90
51853;DHT22;37894;53.172;6.598;2023-02-01T14:27:29;7.50;99.90
51853;DHT22;37894;53.172;6.598;2023-02-01T14:30:05;8.60;99.90
51853;DHT22;37894;53.172;6.598;2023-02-01T14:32:39;7.50;99.90
51853;DHT22;37894;53.172;6.598;2023-02-01T14:35:26;7.20;99.90
51853;DHT22;37894;53.172;6.598;2023-02-01T14:37:58;7.40;99.90
51853;DHT22;37894;53.172;6.598;2023-02-01T14:40:25;7.70;99.90
51853;DHT22;37894;53.172;6.598;2023-02-01T14:42:52;8.10;99.90
51853;DHT22;37894;53.172;6.598;2023-02-01T14:55:59;7.60;99.90
51853;DHT22;37894;53.172;6.598;2023-02-01T14:58:55;6.70;99.90
51853;DHT22;37894;53.172;6.598;2023-02-01T15:01:26;7.50;99.90
51853;DHT22;37894;53.172;6.598;2023-02-01T15:04:03;7.80;99.90
51853;DHT22;37894;53.172;6.598;2023-02-01T15:09:23;7.50;99.90
51853;DHT22;37894;53.172;6.598;2023-02-01T15:15:10;7.30;99.90
51853;DHT22;37894;53.172;6.598;2023-02-01T15:17:36;7.70;99.90
51853;DHT22;37894;53.172;6.598;2023-02-01T15:20:13;7.40;99.90
51853;DHT22;37894;53.172;6.598;2023-02-01T15:25:21;7.60;99.90
51853;DHT22;37894;53.172;6.598;2023-02-01T15:30:19;7.40;99.90
51853;DHT22;37894;53.172;6.598;2023-02-01T15:32:50;8.30;99.90
51853;DHT22;37894;53.172;6.598;2023-02-01T15:35:38;8.40;99.90
51853;DHT22;37894;53.172;6.598;2023-02-01T15:40:55;7.50;99.90
51853;DHT22;37894;53.172;6.598;2023-02-01T15:43:25;7.60;99.90
51853;DHT22;37894;53.172;6.598;2023-02-01T15:45:55;7.50;99.90
51853;DHT22;37894;53.172;6.598;2023-02-01T15:48:25;7.40;99.90
51853;DHT22;37894;53.172;6.598;2023-02-01T15:50:59;7.40;99.90
51853;DHT22;37894;53.172;6.598;2023-02-01T15:53:31;7.30;99.90
51853;DHT22;37894;53.172;6.598;2023-02-01T15:56:03;7.20;99.90
51853;DHT22;37894;53.172;6.598;2023-02-01T15:58:29;7.20;99.90
51853;DHT22;37894;53.172;6.598;2023-02-01T16:01:04;7.40;99.90
51853;DHT22;37894;53.172;6.598;2023-02-01T16:03:44;7.30;99.90
51853;DHT22;37894;53.172;6.598;2023-02-01T16:08:59;7.30;99.90
51853;DHT22;37894;53.172;6.598;2023-02-01T16:11:28;7.60;99.90
51853;DHT22;37894;53.172;6.598;2023-02-01T16:14:00;7.20;99.90
51853;DHT22;37894;53.172;6.598;2023-02-01T16:16:29;7.10;99.90
51853;DHT22;37894;53.172;6.598;2023-02-01T16:21:22;6.10;99.90
51853;DHT22;37894;53.172;6.598;2023-02-01T16:23:51;6.60;99.90
51853;DHT22;37894;53.172;6.598;2023-02-01T16:26:18;6.80;99.90
51853;DHT22;37894;53.172;6.598;2023-02-01T16:28:45;6.40;99.90
51853;DHT22;37894;53.172;6.598;2023-02-01T16:31:13;7.20;99.90
51853;DHT22;37894;53.172;6.598;2023-02-01T16:33:49;6.60;99.90
51853;DHT22;37894;53.172;6.598;2023-02-01T16:36:15;6.60;99.90
51853;DHT22;37894;53.172;6.598;2023-02-01T16:38:41;6.80;99.90
51853;DHT22;37894;53.172;6.598;2023-02-01T16:41:14;6.20;99.90
51853;DHT22;37894;53.172;6.598;2023-02-01T16:43:40;5.60;99.90
51853;DHT22;37894;53.172;6.598;2023-02-01T16:46:15;7.40;99.90
51853;DHT22;37894;53.172;6.598;2023-02-01T16:48:43;6.40;99.90
51853;DHT22;37894;53.172;6.598;2023-02-01T16:51:13;6.70;99.90
51853;DHT22;37894;53.172;6.598;2023-02-01T16:56:17;6.30;99.90
51853;DHT22;37894;53.172;6.598;2023-02-01T17:01:15;6.50;99.90
51853;DHT22;37894;53.172;6.598;2023-02-01T17:03:41;7.20;99.90
51853;DHT22;37894;53.172;6.598;2023-02-01T17:06:10;6.40;99.90
51853;DHT22;37894;53.172;6.598;2023-02-01T17:08:40;6.90;99.90
51853;DHT22;37894;53.172;6.598;2023-02-01T17:11:06;6.50;99.90
51853;DHT22;37894;53.172;6.598;2023-02-01T17:13:33;7.10;99.90
51853;DHT22;37894;53.172;6.598;2023-02-01T17:18:44;6.10;99.90
51853;DHT22;37894;53.172;6.598;2023-02-01T17:21:12;6.50;99.90
51853;DHT22;37894;53.172;6.598;2023-02-01T17:23:38;6.50;99.90
51853;DHT22;37894;53.172;6.598;2023-02-01T17:26:04;6.40;99.90
51853;DHT22;37894;53.172;6.598;2023-02-01T17:28:29;6.50;99.90
51853;DHT22;37894;53.172;6.598;2023-02-01T17:30:56;6.30;99.90
51853;DHT22;37894;53.172;6.598;2023-02-01T17:33:28;6.20;99.90
51853;DHT22;37894;53.172;6.598;2023-02-01T17:35:56;6.50;99.90
51853;DHT22;37894;53.172;6.598;2023-02-01T17:38:22;6.30;99.90
51853;DHT22;37894;53.172;6.598;2023-02-01T17:40:48;6.80;99.90
51853;DHT22;37894;53.172;6.598;2023-02-01T17:43:24;6.30;99.90
51853;DHT22;37894;53.172;6.598;2023-02-01T17:46:04;6.10;99.90
51853;DHT22;37894;53.172;6.598;2023-02-01T17:48:31;5.30;99.90
51853;DHT22;37894;53.172;6.598;2023-02-01T17:50:56;6.20;99.90
51853;DHT22;37894;53.172;6.598;2023-02-01T17:53:27;6.20;99.90
51853;DHT22;37894;53.172;6.598;2023-02-01T17:55:53;6.20;99.90
51853;DHT22;37894;53.172;6.598;2023-02-01T17:58:21;5.90;99.90
51853;DHT22;37894;53.172;6.598;2023-02-01T18:00:47;6.30;99.90
51853;DHT22;37894;53.172;6.598;2023-02-01T18:03:21;6.20;99.90
51853;DHT22;37894;53.172;6.598;2023-02-01T18:08:23;6.10;99.90
51853;DHT22;37894;53.172;6.598;2023-02-01T18:10:51;6.10;99.90
51853;DHT22;37894;53.172;6.598;2023-02-01T18:13:17;6.40;99.90
51853;DHT22;37894;53.172;6.598;2023-02-01T18:15:42;7.30;99.90
51853;DHT22;37894;53.172;6.598;2023-02-01T18:18:08;5.10;99.90
51853;DHT22;37894;53.172;6.598;2023-02-01T18:20:34;6.20;99.90
51853;DHT22;37894;53.172;6.598;2023-02-01T18:23:01;6.00;99.90
51853;DHT22;37894;53.172;6.598;2023-02-01T18:25:29;5.90;99.90
51853;DHT22;37894;53.172;6.598;2023-02-01T18:27:55;6.00;99.90
51853;DHT22;37894;53.172;6.598;2023-02-01T18:30:29;6.40;99.90
51853;DHT22;37894;53.172;6.598;2023-02-01T18:32:55;7.00;99.90
51853;DHT22;37894;53.172;6.598;2023-02-01T18:35:24;6.10;99.90
51853;DHT22;37894;53.172;6.598;2023-02-01T18:37:51;5.90;99.90
51853;DHT22;37894;53.172;6.598;2023-02-01T18:40:22;6.00;99.90
51853;DHT22;37894;53.172;6.598;2023-02-01T18:42:48;6.30;99.90
51853;DHT22;37894;53.172;6.598;2023-02-01T18:45:33;6.10;99.90
51853;DHT22;37894;53.172;6.598;2023-02-01T18:47:59;6.10;99.90
51853;DHT22;37894;53.172;6.598;2023-02-01T18:50:29;6.00;99.90
51853;DHT22;37894;53.172;6.598;2023-02-01T18:52:57;6.00;99.90
51853;DHT22;37894;53.172;6.598;2023-02-01T18:55:24;6.00;99.90
51853;DHT22;37894;53.172;6.598;2023-02-01T18:57:50;5.90;99.90
51853;DHT22;37894;53.172;6.598;2023-02-01T19:00:17;5.70;99.90
51853;DHT22;37894;53.172;6.598;2023-02-01T19:02:43;6.00;99.90
51853;DHT22;37894;53.172;6.598;2023-02-01T19:05:10;5.80;99.90
51853;DHT22;37894;53.172;6.598;2023-02-01T19:07:37;6.20;99.90
51853;DHT22;37894;53.172;6.598;2023-02-01T19:10:07;5.90;99.90
51853;DHT22;37894;53.172;6.598;2023-02-01T19:12:34;6.70;99.90
51853;DHT22;37894;53.172;6.598;2023-02-01T19:15:02;6.20;99.90
51853;DHT22;37894;53.172;6.598;2023-02-01T19:17:28;5.80;99.90
51853;DHT22;37894;53.172;6.598;2023-02-01T19:19:55;6.20;99.90
51853;DHT22;37894;53.172;6.598;2023-02-01T19:22:24;6.00;99.90
51853;DHT22;37894;53.172;6.598;2023-02-01T19:24:50;6.30;99.90
51853;DHT22;37894;53.172;6.598;2023-02-01T19:27:16;5.90;99.90
51853;DHT22;37894;53.172;6.598;2023-02-01T19:29:41;5.80;99.90
51853;DHT22;37894;53.172;6.598;2023-02-01T19:37:04;6.10;99.90
51853;DHT22;37894;53.172;6.598;2023-02-01T19:39:30;6.00;99.90
51853;DHT22;37894;53.172;6.598;2023-02-01T19:41:56;5.80;99.90
51853;DHT22;37894;53.172;6.598;2023-02-01T19:44:24;5.90;99.90
51853;DHT22;37894;53.172;6.598;2023-02-01T19:46:50;6.00;99.90
51853;DHT22;37894;53.172;6.598;2023-02-01T19:49:15;6.00;99.90
51853;DHT22;37894;53.172;6.598;2023-02-01T19:51:41;5.70;99.90
51853;DHT22;37894;53.172;6.598;2023-02-01T19:54:10;6.60;99.90
51853;DHT22;37894;53.172;6.598;2023-02-01T19:56:36;5.90;99.90
51853;DHT22;37894;53.172;6.598;2023-02-01T19:59:03;5.80;99.90
51853;DHT22;37894;53.172;6.598;2023-02-01T20:01:32;5.90;99.90
51853;DHT22;37894;53.172;6.598;2023-02-01T20:03:59;5.80;99.90
51853;DHT22;37894;53.172;6.598;2023-02-01T20:08:56;5.70;99.90
51853;DHT22;37894;53.172;6.598;2023-02-01T20:11:23;5.80;99.90
51853;DHT22;37894;53.172;6.598;2023-02-01T20:13:55;6.60;99.90
51853;DHT22;37894;53.172;6.598;2023-02-01T20:16:21;5.70;99.90
51853;DHT22;37894;53.172;6.598;2023-02-01T20:18:48;5.60;99.90
51853;DHT22;37894;53.172;6.598;2023-02-01T20:21:15;5.70;99.90
51853;DHT22;37894;53.172;6.598;2023-02-01T20:23:41;5.70;99.90
51853;DHT22;37894;53.172;6.598;2023-02-01T20:26:10;6.10;99.90